Terminal Aerodrome Forecast
Issued by NWS Grand Forks, ND

Home | Current Version | Previous Version | Text Only | Print | Product List | Glossary On
Versions: 1 2 3 4 5 6 7 8 9 10 11 12 13 14 15 16 17 18 19 20
000
FTUS43 KFGF 250500
TAFGFK
TAF
KGFK 250520Z 2506/2606 20008KT P6SM SKC
     FM250900 20006KT P6SM SCT080
      TEMPO 2510/2512 BKN080
     FM251400 25017KT P6SM BKN040
     FM251800 29017KT P6SM BKN060=

USA.gov is the U.S. government's official web portal to all federal, state and local government web resources and services.